Terminal Aerodrome Forecast
Issued by NWS Amarillo, TX

Home | Current Version | Previous Version | Text Only | Print | Product List | Glossary On
Versions: 1 2 3 4 5 6 7 8 9 10 11 12 13 14 15 16 17 18
675
FTUS44 KAMA 291134 CCA
TAFDHT
TAF COR
KDHT 291134Z 2912/3012 06018G28KT P6SM -SHRA SCT010 OVC100
      TEMPO 2912/2916 VRB35KT 1SM +TSRA BR OVC004CB
     FM292200 34019G29KT P6SM SCT015 BKN060
     FM300800 33013KT P6SM SCT100=

USA.gov is the U.S. government's official web portal to all federal, state and local government web resources and services.